Lake Monroe, Florida
Current Conditions -  °F | °C
As of 8:53 AM on Wednesday 26 Nov 2014 (Local Time) from KSFB Reporting Station
Overcast Overcast  
Wind Chill: 54°   Ceiling: 800
Heat Index: 54°   Visibility: 10mi
Dew Point: 52°   Wind: 8mph
Humidity: 93%   Direction: 330°NNW
Pressure: 30.06"   Gusts: NA
Location:  28.83°N, 81.33°W
Report Text: KSFB 261353Z 33007KT 10SM BKN008 OVC022 12/11 A3006 RMK AO2 RAE33 SLP178 P0001 T01220111
Loading
Personal Weather Stations






























Interactive Weather Map New forecast layout! Learn more

10-Day Weather Forecast

Advertisements
Track Severe Weather on mobile